Terminal Aerodrome Forecast
Issued by NWS

Home | Current Version | Previous Version | Graphics & Text | Print | Product List | Glossary Off
Versions: 1 2 3 4 5 6 7 8 9 10 11 12 13 14 15 16 17 18 19 20 21 22 23 24 25 26 27 28 29 30 31 32 33 34 35 36 37 38 39 40 41

612
FTUS43 KDDC 241724
TAFHYS
TAF
KHYS 241724Z 2418/2518 07011KT P6SM SCT200
     FM242100 05013KT P6SM VCSH SCT050 BKN140
     FM250000 35018G26KT P6SM BKN018
     FM251400 35012KT P6SM BKN020
      AMD NOT SKED=

USA.gov is the U.S. government's official web portal to all federal, state and local government web resources and services.